sensor_id;sensor_type;location;lat;lon;timestamp;temperature;humidity
62904;DHT22;49000;50.698;13.322;2024-03-06T00:01:33;4.50;1.00
62904;DHT22;49000;50.698;13.322;2024-03-06T00:03:59;4.10;1.00
62904;DHT22;49000;50.698;13.322;2024-03-06T00:06:24;4.20;1.00
62904;DHT22;49000;50.698;13.322;2024-03-06T00:08:50;4.30;1.00
62904;DHT22;49000;50.698;13.322;2024-03-06T00:11:16;4.50;1.00
62904;DHT22;49000;50.698;13.322;2024-03-06T00:13:42;4.00;3.20
62904;DHT22;49000;50.698;13.322;2024-03-06T00:16:08;4.60;8.90
62904;DHT22;49000;50.698;13.322;2024-03-06T00:18:34;4.10;13.20
62904;DHT22;49000;50.698;13.322;2024-03-06T00:20:59;4.20;15.40
62904;DHT22;49000;50.698;13.322;2024-03-06T00:23:25;4.40;15.80
62904;DHT22;49000;50.698;13.322;2024-03-06T00:25:51;4.40;15.70
62904;DHT22;49000;50.698;13.322;2024-03-06T00:28:16;4.40;15.10
62904;DHT22;49000;50.698;13.322;2024-03-06T00:30:42;4.40;11.50
62904;DHT22;49000;50.698;13.322;2024-03-06T00:33:07;3.90;1.00
62904;DHT22;49000;50.698;13.322;2024-03-06T00:35:33;4.20;1.00
62904;DHT22;49000;50.698;13.322;2024-03-06T00:37:58;4.30;1.00
62904;DHT22;49000;50.698;13.322;2024-03-06T00:40:28;4.10;1.00
62904;DHT22;49000;50.698;13.322;2024-03-06T00:42:56;3.50;1.00
62904;DHT22;49000;50.698;13.322;2024-03-06T00:45:22;3.80;1.00
62904;DHT22;49000;50.698;13.322;2024-03-06T00:47:47;3.70;1.00
62904;DHT22;49000;50.698;13.322;2024-03-06T00:50:13;3.50;1.00
62904;DHT22;49000;50.698;13.322;2024-03-06T00:52:38;3.70;1.00
62904;DHT22;49000;50.698;13.322;2024-03-06T00:55:05;3.60;1.00
62904;DHT22;49000;50.698;13.322;2024-03-06T00:57:31;3.40;1.00
62904;DHT22;49000;50.698;13.322;2024-03-06T00:59:56;3.50;1.00
62904;DHT22;49000;50.698;13.322;2024-03-06T01:02:22;2.90;1.00
62904;DHT22;49000;50.698;13.322;2024-03-06T01:04:47;2.80;1.00
62904;DHT22;49000;50.698;13.322;2024-03-06T01:07:13;3.00;1.00
62904;DHT22;49000;50.698;13.322;2024-03-06T01:09:38;2.80;1.00
62904;DHT22;49000;50.698;13.322;2024-03-06T01:12:04;3.10;1.00
62904;DHT22;49000;50.698;13.322;2024-03-06T01:14:30;3.20;1.00
62904;DHT22;49000;50.698;13.322;2024-03-06T01:16:56;3.00;1.00
62904;DHT22;49000;50.698;13.322;2024-03-06T01:19:23;2.90;1.00
62904;DHT22;49000;50.698;13.322;2024-03-06T01:21:48;2.50;1.00
62904;DHT22;49000;50.698;13.322;2024-03-06T01:24:14;2.80;1.00
62904;DHT22;49000;50.698;13.322;2024-03-06T01:26:40;2.60;1.00
62904;DHT22;49000;50.698;13.322;2024-03-06T01:29:08;2.20;1.00
62904;DHT22;49000;50.698;13.322;2024-03-06T01:31:34;2.70;1.00
62904;DHT22;49000;50.698;13.322;2024-03-06T01:33:59;2.60;1.00
62904;DHT22;49000;50.698;13.322;2024-03-06T01:36:24;2.60;1.00
62904;DHT22;49000;50.698;13.322;2024-03-06T01:38:50;2.50;1.00
62904;DHT22;49000;50.698;13.322;2024-03-06T01:41:15;2.80;1.00
62904;DHT22;49000;50.698;13.322;2024-03-06T01:43:41;2.20;1.00
62904;DHT22;49000;50.698;13.322;2024-03-06T01:46:07;2.50;1.00
62904;DHT22;49000;50.698;13.322;2024-03-06T01:48:33;2.20;1.00
62904;DHT22;49000;50.698;13.322;2024-03-06T01:51:02;2.20;1.00
62904;DHT22;49000;50.698;13.322;2024-03-06T01:53:29;2.10;1.00
62904;DHT22;49000;50.698;13.322;2024-03-06T01:55:56;2.40;1.00
62904;DHT22;49000;50.698;13.322;2024-03-06T01:58:21;2.40;1.00
62904;DHT22;49000;50.698;13.322;2024-03-06T02:00:50;2.40;1.00
62904;DHT22;49000;50.698;13.322;2024-03-06T02:03:16;2.20;1.00
62904;DHT22;49000;50.698;13.322;2024-03-06T02:05:42;2.40;1.00
62904;DHT22;49000;50.698;13.322;2024-03-06T02:08:08;2.30;1.00
62904;DHT22;49000;50.698;13.322;2024-03-06T02:10:34;2.40;1.00
62904;DHT22;49000;50.698;13.322;2024-03-06T02:13:00;2.60;1.00
62904;DHT22;49000;50.698;13.322;2024-03-06T02:15:26;2.40;1.00
62904;DHT22;49000;50.698;13.322;2024-03-06T02:17:51;2.30;1.00
62904;DHT22;49000;50.698;13.322;2024-03-06T02:20:24;2.20;1.00
62904;DHT22;49000;50.698;13.322;2024-03-06T02:22:50;2.40;1.00
62904;DHT22;49000;50.698;13.322;2024-03-06T02:25:16;1.90;1.00
62904;DHT22;49000;50.698;13.322;2024-03-06T02:27:42;2.20;1.00
62904;DHT22;49000;50.698;13.322;2024-03-06T02:30:09;2.40;1.00
62904;DHT22;49000;50.698;13.322;2024-03-06T02:32:34;2.30;1.00
62904;DHT22;49000;50.698;13.322;2024-03-06T02:35:01;2.10;1.00
62904;DHT22;49000;50.698;13.322;2024-03-06T02:37:28;2.50;1.00
62904;DHT22;49000;50.698;13.322;2024-03-06T02:39:53;2.50;1.00
62904;DHT22;49000;50.698;13.322;2024-03-06T02:42:19;2.20;1.00
62904;DHT22;49000;50.698;13.322;2024-03-06T02:44:44;2.30;1.00
62904;DHT22;49000;50.698;13.322;2024-03-06T02:47:10;2.60;1.00
62904;DHT22;49000;50.698;13.322;2024-03-06T02:49:35;2.00;1.00
62904;DHT22;49000;50.698;13.322;2024-03-06T02:52:01;2.50;1.00
62904;DHT22;49000;50.698;13.322;2024-03-06T02:54:27;2.60;1.00
62904;DHT22;49000;50.698;13.322;2024-03-06T02:56:52;2.40;34.40
62904;DHT22;49000;50.698;13.322;2024-03-06T02:59:18;1.90;99.10
62904;DHT22;49000;50.698;13.322;2024-03-06T03:01:44;1.90;99.90
62904;DHT22;49000;50.698;13.322;2024-03-06T03:04:10;2.50;99.90
62904;DHT22;49000;50.698;13.322;2024-03-06T03:06:35;2.50;99.90
62904;DHT22;49000;50.698;13.322;2024-03-06T03:09:01;2.40;99.90
62904;DHT22;49000;50.698;13.322;2024-03-06T03:11:29;2.20;99.90
62904;DHT22;49000;50.698;13.322;2024-03-06T03:13:54;2.70;1.00
62904;DHT22;49000;50.698;13.322;2024-03-06T03:16:20;2.10;1.00
62904;DHT22;49000;50.698;13.322;2024-03-06T03:18:46;2.60;1.00
62904;DHT22;49000;50.698;13.322;2024-03-06T03:21:12;2.50;1.00
62904;DHT22;49000;50.698;13.322;2024-03-06T03:23:38;2.30;1.00
62904;DHT22;49000;50.698;13.322;2024-03-06T03:26:05;2.30;1.00
62904;DHT22;49000;50.698;13.322;2024-03-06T03:28:30;2.70;1.00
62904;DHT22;49000;50.698;13.322;2024-03-06T03:30:56;2.70;1.00
62904;DHT22;49000;50.698;13.322;2024-03-06T03:33:24;2.40;1.00
62904;DHT22;49000;50.698;13.322;2024-03-06T03:35:50;2.20;1.00
62904;DHT22;49000;50.698;13.322;2024-03-06T03:38:15;2.50;1.00
62904;DHT22;49000;50.698;13.322;2024-03-06T03:40:41;2.60;1.00
62904;DHT22;49000;50.698;13.322;2024-03-06T03:43:07;2.50;1.00
62904;DHT22;49000;50.698;13.322;2024-03-06T03:45:33;2.60;1.00
62904;DHT22;49000;50.698;13.322;2024-03-06T03:48:03;2.60;1.00
62904;DHT22;49000;50.698;13.322;2024-03-06T03:50:29;2.70;1.00
62904;DHT22;49000;50.698;13.322;2024-03-06T03:52:58;2.60;1.00
62904;DHT22;49000;50.698;13.322;2024-03-06T03:55:26;2.60;1.00
62904;DHT22;49000;50.698;13.322;2024-03-06T03:57:51;2.70;1.00
62904;DHT22;49000;50.698;13.322;2024-03-06T04:00:18;2.40;1.00
62904;DHT22;49000;50.698;13.322;2024-03-06T04:02:43;2.70;1.00
62904;DHT22;49000;50.698;13.322;2024-03-06T04:05:09;2.20;1.00
62904;DHT22;49000;50.698;13.322;2024-03-06T04:07:36;2.70;1.00
62904;DHT22;49000;50.698;13.322;2024-03-06T04:10:02;2.30;1.00
62904;DHT22;49000;50.698;13.322;2024-03-06T04:12:27;2.70;1.00
62904;DHT22;49000;50.698;13.322;2024-03-06T04:14:53;2.60;1.00
62904;DHT22;49000;50.698;13.322;2024-03-06T04:17:19;3.00;1.00
62904;DHT22;49000;50.698;13.322;2024-03-06T04:19:44;2.60;1.00
62904;DHT22;49000;50.698;13.322;2024-03-06T04:22:10;2.90;1.00
62904;DHT22;49000;50.698;13.322;2024-03-06T04:24:36;2.90;1.00
62904;DHT22;49000;50.698;13.322;2024-03-06T04:27:01;2.40;1.00
62904;DHT22;49000;50.698;13.322;2024-03-06T04:29:26;2.70;1.00
62904;DHT22;49000;50.698;13.322;2024-03-06T04:31:52;3.00;1.00
62904;DHT22;49000;50.698;13.322;2024-03-06T04:34:17;2.90;1.00
62904;DHT22;49000;50.698;13.322;2024-03-06T04:36:45;2.70;1.00
62904;DHT22;49000;50.698;13.322;2024-03-06T04:39:10;3.00;1.00
62904;DHT22;49000;50.698;13.322;2024-03-06T04:41:37;2.80;1.00
62904;DHT22;49000;50.698;13.322;2024-03-06T04:44:02;2.90;1.00
62904;DHT22;49000;50.698;13.322;2024-03-06T04:46:28;3.10;1.00
62904;DHT22;49000;50.698;13.322;2024-03-06T04:48:53;3.10;1.00
62904;DHT22;49000;50.698;13.322;2024-03-06T04:51:19;3.10;1.00
62904;DHT22;49000;50.698;13.322;2024-03-06T04:53:45;3.40;1.00
62904;DHT22;49000;50.698;13.322;2024-03-06T04:56:11;3.20;1.00
62904;DHT22;49000;50.698;13.322;2024-03-06T04:58:36;3.20;1.00
62904;DHT22;49000;50.698;13.322;2024-03-06T05:01:02;3.10;1.00
62904;DHT22;49000;50.698;13.322;2024-03-06T05:03:29;3.20;1.00
62904;DHT22;49000;50.698;13.322;2024-03-06T05:05:54;2.80;1.00
62904;DHT22;49000;50.698;13.322;2024-03-06T05:08:20;3.20;1.00
62904;DHT22;49000;50.698;13.322;2024-03-06T05:10:46;3.50;1.00
62904;DHT22;49000;50.698;13.322;2024-03-06T05:13:11;3.40;1.00
62904;DHT22;49000;50.698;13.322;2024-03-06T05:15:37;2.90;1.00
62904;DHT22;49000;50.698;13.322;2024-03-06T05:18:04;3.60;1.00
62904;DHT22;49000;50.698;13.322;2024-03-06T05:20:30;3.50;1.00
62904;DHT22;49000;50.698;13.322;2024-03-06T05:22:58;3.10;1.00
62904;DHT22;49000;50.698;13.322;2024-03-06T05:25:24;3.10;1.00
62904;DHT22;49000;50.698;13.322;2024-03-06T05:27:50;3.70;1.00
62904;DHT22;49000;50.698;13.322;2024-03-06T05:30:15;3.10;1.00
62904;DHT22;49000;50.698;13.322;2024-03-06T05:32:41;3.70;1.00
62904;DHT22;49000;50.698;13.322;2024-03-06T05:35:09;3.60;1.00
62904;DHT22;49000;50.698;13.322;2024-03-06T05:37:35;3.50;1.00
62904;DHT22;49000;50.698;13.322;2024-03-06T05:40:01;3.70;1.00
62904;DHT22;49000;50.698;13.322;2024-03-06T05:42:30;3.50;1.00
62904;DHT22;49000;50.698;13.322;2024-03-06T05:44:56;3.70;1.00
62904;DHT22;49000;50.698;13.322;2024-03-06T05:47:25;3.80;1.00
62904;DHT22;49000;50.698;13.322;2024-03-06T05:49:51;3.70;1.00
62904;DHT22;49000;50.698;13.322;2024-03-06T05:52:17;3.90;1.00
62904;DHT22;49000;50.698;13.322;2024-03-06T05:54:42;3.80;1.00
62904;DHT22;49000;50.698;13.322;2024-03-06T05:57:08;3.40;1.00
62904;DHT22;49000;50.698;13.322;2024-03-06T05:59:33;3.90;1.00
62904;DHT22;49000;50.698;13.322;2024-03-06T06:01:58;3.70;1.00
62904;DHT22;49000;50.698;13.322;2024-03-06T06:04:24;3.50;1.00
62904;DHT22;49000;50.698;13.322;2024-03-06T06:06:51;3.80;1.00
62904;DHT22;49000;50.698;13.322;2024-03-06T06:09:17;3.40;1.00
62904;DHT22;49000;50.698;13.322;2024-03-06T06:11:43;3.80;1.00
62904;DHT22;49000;50.698;13.322;2024-03-06T06:14:09;4.10;1.00
62904;DHT22;49000;50.698;13.322;2024-03-06T06:16:39;3.80;1.00
62904;DHT22;49000;50.698;13.322;2024-03-06T06:19:06;3.50;1.00
62904;DHT22;49000;50.698;13.322;2024-03-06T06:21:32;4.00;1.00
62904;DHT22;49000;50.698;13.322;2024-03-06T06:23:58;3.70;1.00
62904;DHT22;49000;50.698;13.322;2024-03-06T06:26:23;4.00;1.00
62904;DHT22;49000;50.698;13.322;2024-03-06T06:28:48;3.50;1.00
62904;DHT22;49000;50.698;13.322;2024-03-06T06:31:14;3.70;1.00
62904;DHT22;49000;50.698;13.322;2024-03-06T06:33:39;3.90;1.00
62904;DHT22;49000;50.698;13.322;2024-03-06T06:36:05;4.30;1.00
62904;DHT22;49000;50.698;13.322;2024-03-06T06:38:31;3.90;1.00
62904;DHT22;49000;50.698;13.322;2024-03-06T06:40:56;4.00;1.00
62904;DHT22;49000;50.698;13.322;2024-03-06T06:43:22;4.20;1.00
62904;DHT22;49000;50.698;13.322;2024-03-06T06:45:47;3.70;1.00
62904;DHT22;49000;50.698;13.322;2024-03-06T06:48:13;4.20;1.00
62904;DHT22;49000;50.698;13.322;2024-03-06T06:50:38;4.20;1.00
62904;DHT22;49000;50.698;13.322;2024-03-06T06:53:04;4.10;1.00
62904;DHT22;49000;50.698;13.322;2024-03-06T06:55:30;4.40;1.00
62904;DHT22;49000;50.698;13.322;2024-03-06T06:57:56;4.00;1.00
62904;DHT22;49000;50.698;13.322;2024-03-06T07:00:21;4.40;1.00
62904;DHT22;49000;50.698;13.322;2024-03-06T07:02:48;4.10;1.00
62904;DHT22;49000;50.698;13.322;2024-03-06T07:05:14;4.50;1.00
62904;DHT22;49000;50.698;13.322;2024-03-06T07:07:40;4.30;1.00
62904;DHT22;49000;50.698;13.322;2024-03-06T07:10:06;4.50;1.00
62904;DHT22;49000;50.698;13.322;2024-03-06T07:12:32;4.70;1.00
62904;DHT22;49000;50.698;13.322;2024-03-06T07:14:58;4.70;1.00
62904;DHT22;49000;50.698;13.322;2024-03-06T07:17:24;4.90;1.00
62904;DHT22;49000;50.698;13.322;2024-03-06T07:19:50;4.50;1.00
62904;DHT22;49000;50.698;13.322;2024-03-06T07:22:17;5.10;1.00
62904;DHT22;49000;50.698;13.322;2024-03-06T07:24:43;4.50;1.00
62904;DHT22;49000;50.698;13.322;2024-03-06T07:27:09;4.80;1.00
62904;DHT22;49000;50.698;13.322;2024-03-06T07:29:35;5.30;1.00
62904;DHT22;49000;50.698;13.322;2024-03-06T07:32:01;4.80;1.00
62904;DHT22;49000;50.698;13.322;2024-03-06T07:34:27;4.90;1.00
62904;DHT22;49000;50.698;13.322;2024-03-06T07:36:53;4.90;1.00
62904;DHT22;49000;50.698;13.322;2024-03-06T07:39:21;5.50;1.00
62904;DHT22;49000;50.698;13.322;2024-03-06T07:41:47;5.60;1.00
62904;DHT22;49000;50.698;13.322;2024-03-06T07:44:13;5.20;1.00
62904;DHT22;49000;50.698;13.322;2024-03-06T07:46:39;5.60;99.90
62904;DHT22;49000;50.698;13.322;2024-03-06T07:49:05;5.40;99.90
62904;DHT22;49000;50.698;13.322;2024-03-06T07:51:33;5.50;99.90
62904;DHT22;49000;50.698;13.322;2024-03-06T07:53:59;5.90;99.90
62904;DHT22;49000;50.698;13.322;2024-03-06T07:56:25;6.10;99.90
62904;DHT22;49000;50.698;13.322;2024-03-06T07:58:51;6.10;99.90
62904;DHT22;49000;50.698;13.322;2024-03-06T08:01:17;5.80;99.90
62904;DHT22;49000;50.698;13.322;2024-03-06T08:03:42;5.90;99.90
62904;DHT22;49000;50.698;13.322;2024-03-06T08:06:09;5.90;99.90
62904;DHT22;49000;50.698;13.322;2024-03-06T08:08:35;6.20;99.90
62904;DHT22;49000;50.698;13.322;2024-03-06T08:11:01;6.20;76.70
62904;DHT22;49000;50.698;13.322;2024-03-06T08:13:27;5.90;29.60
62904;DHT22;49000;50.698;13.322;2024-03-06T08:15:53;6.30;1.00
62904;DHT22;49000;50.698;13.322;2024-03-06T08:18:18;6.40;1.00
62904;DHT22;49000;50.698;13.322;2024-03-06T08:20:44;6.10;1.00
62904;DHT22;49000;50.698;13.322;2024-03-06T08:23:09;6.60;1.00
62904;DHT22;49000;50.698;13.322;2024-03-06T08:25:35;6.60;1.00
62904;DHT22;49000;50.698;13.322;2024-03-06T08:28:01;6.90;1.00
62904;DHT22;49000;50.698;13.322;2024-03-06T08:30:28;6.80;1.00
62904;DHT22;49000;50.698;13.322;2024-03-06T08:32:55;6.90;1.00
62904;DHT22;49000;50.698;13.322;2024-03-06T08:35:21;7.00;1.00
62904;DHT22;49000;50.698;13.322;2024-03-06T08:37:49;7.20;1.00
62904;DHT22;49000;50.698;13.322;2024-03-06T08:40:14;7.20;99.90
62904;DHT22;49000;50.698;13.322;2024-03-06T08:42:46;6.90;99.90
62904;DHT22;49000;50.698;13.322;2024-03-06T08:45:12;7.00;1.00
62904;DHT22;49000;50.698;13.322;2024-03-06T08:47:39;7.40;99.90
62904;DHT22;49000;50.698;13.322;2024-03-06T08:50:05;7.20;99.90
62904;DHT22;49000;50.698;13.322;2024-03-06T08:52:33;7.80;99.90
62904;DHT22;49000;50.698;13.322;2024-03-06T08:55:00;7.90;99.90
62904;DHT22;49000;50.698;13.322;2024-03-06T08:57:25;8.20;99.90
62904;DHT22;49000;50.698;13.322;2024-03-06T08:59:53;8.40;99.90
62904;DHT22;49000;50.698;13.322;2024-03-06T09:02:19;8.70;99.90
62904;DHT22;49000;50.698;13.322;2024-03-06T09:04:45;8.80;99.90
62904;DHT22;49000;50.698;13.322;2024-03-06T09:07:12;8.70;99.90
62904;DHT22;49000;50.698;13.322;2024-03-06T09:09:38;8.80;99.90
62904;DHT22;49000;50.698;13.322;2024-03-06T09:12:08;8.60;99.90
62904;DHT22;49000;50.698;13.322;2024-03-06T09:14:37;8.60;99.90
62904;DHT22;49000;50.698;13.322;2024-03-06T09:17:04;8.70;99.90
62904;DHT22;49000;50.698;13.322;2024-03-06T09:19:31;8.80;99.90
62904;DHT22;49000;50.698;13.322;2024-03-06T09:21:57;9.10;99.90
62904;DHT22;49000;50.698;13.322;2024-03-06T09:24:23;9.40;99.90
62904;DHT22;49000;50.698;13.322;2024-03-06T09:26:50;9.70;99.90
62904;DHT22;49000;50.698;13.322;2024-03-06T09:29:16;9.80;99.90
62904;DHT22;49000;50.698;13.322;2024-03-06T09:31:42;9.90;99.90
62904;DHT22;49000;50.698;13.322;2024-03-06T09:34:08;9.70;99.90
62904;DHT22;49000;50.698;13.322;2024-03-06T09:36:38;9.40;99.90
62904;DHT22;49000;50.698;13.322;2024-03-06T09:39:03;9.30;99.90
62904;DHT22;49000;50.698;13.322;2024-03-06T09:41:30;9.70;99.90
62904;DHT22;49000;50.698;13.322;2024-03-06T09:43:56;10.00;99.90
62904;DHT22;49000;50.698;13.322;2024-03-06T09:46:21;10.20;99.90
62904;DHT22;49000;50.698;13.322;2024-03-06T09:48:48;10.50;99.90
62904;DHT22;49000;50.698;13.322;2024-03-06T09:51:14;10.80;99.90
62904;DHT22;49000;50.698;13.322;2024-03-06T09:53:41;11.10;99.90
62904;DHT22;49000;50.698;13.322;2024-03-06T09:56:08;11.00;99.90
62904;DHT22;49000;50.698;13.322;2024-03-06T09:58:35;11.00;99.90
62904;DHT22;49000;50.698;13.322;2024-03-06T10:01:01;11.00;99.90
62904;DHT22;49000;50.698;13.322;2024-03-06T10:03:29;11.20;99.90
62904;DHT22;49000;50.698;13.322;2024-03-06T10:05:54;11.30;99.90
62904;DHT22;49000;50.698;13.322;2024-03-06T10:08:21;11.00;99.90
62904;DHT22;49000;50.698;13.322;2024-03-06T10:10:49;11.10;99.90
62904;DHT22;49000;50.698;13.322;2024-03-06T10:13:18;11.30;99.90
62904;DHT22;49000;50.698;13.322;2024-03-06T10:16:01;11.50;99.90
62904;DHT22;49000;50.698;13.322;2024-03-06T10:18:31;11.70;99.90
62904;DHT22;49000;50.698;13.322;2024-03-06T10:20:58;11.80;99.90
62904;DHT22;49000;50.698;13.322;2024-03-06T10:23:24;11.70;99.90
62904;DHT22;49000;50.698;13.322;2024-03-06T10:25:50;11.70;99.90
62904;DHT22;49000;50.698;13.322;2024-03-06T10:28:18;11.40;99.90
62904;DHT22;49000;50.698;13.322;2024-03-06T10:30:44;11.50;99.90
62904;DHT22;49000;50.698;13.322;2024-03-06T10:33:14;11.50;99.90
62904;DHT22;49000;50.698;13.322;2024-03-06T10:35:42;11.60;99.90
62904;DHT22;49000;50.698;13.322;2024-03-06T10:38:09;11.50;99.90
62904;DHT22;49000;50.698;13.322;2024-03-06T10:40:37;11.50;99.90
62904;DHT22;49000;50.698;13.322;2024-03-06T10:43:04;11.40;99.90
62904;DHT22;49000;50.698;13.322;2024-03-06T10:45:48;11.50;99.90
62904;DHT22;49000;50.698;13.322;2024-03-06T10:48:15;11.60;99.90
62904;DHT22;49000;50.698;13.322;2024-03-06T10:50:42;11.60;99.90
62904;DHT22;49000;50.698;13.322;2024-03-06T10:53:12;11.70;99.90
62904;DHT22;49000;50.698;13.322;2024-03-06T10:55:39;11.80;99.90
62904;DHT22;49000;50.698;13.322;2024-03-06T10:58:08;11.90;99.90
62904;DHT22;49000;50.698;13.322;2024-03-06T11:00:35;11.90;99.90
62904;DHT22;49000;50.698;13.322;2024-03-06T11:03:05;11.80;99.90
62904;DHT22;49000;50.698;13.322;2024-03-06T11:05:35;11.70;99.90
62904;DHT22;49000;50.698;13.322;2024-03-06T11:08:00;11.50;99.90
62904;DHT22;49000;50.698;13.322;2024-03-06T11:10:33;11.70;99.90
62904;DHT22;49000;50.698;13.322;2024-03-06T11:13:03;11.80;99.90
62904;DHT22;49000;50.698;13.322;2024-03-06T11:15:30;11.80;99.90
62904;DHT22;49000;50.698;13.322;2024-03-06T11:17:56;11.50;99.90
62904;DHT22;49000;50.698;13.322;2024-03-06T11:20:22;11.40;99.90
62904;DHT22;49000;50.698;13.322;2024-03-06T11:28:28;11.50;99.90
62904;DHT22;49000;50.698;13.322;2024-03-06T11:31:07;11.30;99.90
62904;DHT22;49000;50.698;13.322;2024-03-06T11:33:44;10.80;99.90
62904;DHT22;49000;50.698;13.322;2024-03-06T11:39:05;10.40;99.90
62904;DHT22;49000;50.698;13.322;2024-03-06T11:41:49;10.70;99.90
62904;DHT22;49000;50.698;13.322;2024-03-06T11:44:16;11.20;99.90
62904;DHT22;49000;50.698;13.322;2024-03-06T11:46:46;11.70;99.90
62904;DHT22;49000;50.698;13.322;2024-03-06T11:49:19;11.80;99.90
62904;DHT22;49000;50.698;13.322;2024-03-06T11:51:57;11.90;99.90
62904;DHT22;49000;50.698;13.322;2024-03-06T11:54:24;11.90;99.90
62904;DHT22;49000;50.698;13.322;2024-03-06T11:56:53;12.00;99.90
62904;DHT22;49000;50.698;13.322;2024-03-06T12:01:51;12.10;99.90
62904;DHT22;49000;50.698;13.322;2024-03-06T12:04:18;12.10;99.90
62904;DHT22;49000;50.698;13.322;2024-03-06T12:06:44;12.00;99.90
62904;DHT22;49000;50.698;13.322;2024-03-06T12:09:09;11.60;99.90
62904;DHT22;49000;50.698;13.322;2024-03-06T12:11:37;11.40;99.90
62904;DHT22;49000;50.698;13.322;2024-03-06T12:14:03;11.60;99.90
62904;DHT22;49000;50.698;13.322;2024-03-06T12:16:28;11.90;99.90
62904;DHT22;49000;50.698;13.322;2024-03-06T12:18:58;11.70;99.90
62904;DHT22;49000;50.698;13.322;2024-03-06T12:21:28;11.30;99.90
62904;DHT22;49000;50.698;13.322;2024-03-06T12:24:05;11.70;99.90
62904;DHT22;49000;50.698;13.322;2024-03-06T12:26:32;12.00;99.90
62904;DHT22;49000;50.698;13.322;2024-03-06T12:29:08;12.20;99.90
62904;DHT22;49000;50.698;13.322;2024-03-06T12:31:35;12.30;99.90
62904;DHT22;49000;50.698;13.322;2024-03-06T12:34:01;12.20;99.90
62904;DHT22;49000;50.698;13.322;2024-03-06T12:36:30;12.50;99.90
62904;DHT22;49000;50.698;13.322;2024-03-06T12:39:00;12.30;99.90
62904;DHT22;49000;50.698;13.322;2024-03-06T12:41:26;12.20;99.90
62904;DHT22;49000;50.698;13.322;2024-03-06T12:43:52;12.00;99.90
62904;DHT22;49000;50.698;13.322;2024-03-06T12:46:19;12.00;99.90
62904;DHT22;49000;50.698;13.322;2024-03-06T12:48:44;12.20;99.90
62904;DHT22;49000;50.698;13.322;2024-03-06T12:51:11;11.90;99.90
62904;DHT22;49000;50.698;13.322;2024-03-06T12:53:36;11.80;99.90
62904;DHT22;49000;50.698;13.322;2024-03-06T12:56:02;11.70;99.90
62904;DHT22;49000;50.698;13.322;2024-03-06T12:58:28;11.70;99.90
62904;DHT22;49000;50.698;13.322;2024-03-06T13:00:53;11.70;99.90
62904;DHT22;49000;50.698;13.322;2024-03-06T13:03:20;12.00;99.90
62904;DHT22;49000;50.698;13.322;2024-03-06T13:05:45;11.40;99.90
62904;DHT22;49000;50.698;13.322;2024-03-06T13:08:11;11.10;99.90
62904;DHT22;49000;50.698;13.322;2024-03-06T13:10:39;11.10;99.90
62904;DHT22;49000;50.698;13.322;2024-03-06T13:13:05;11.40;99.90
62904;DHT22;49000;50.698;13.322;2024-03-06T13:15:32;11.30;99.90
62904;DHT22;49000;50.698;13.322;2024-03-06T13:17:59;11.20;99.90
62904;DHT22;49000;50.698;13.322;2024-03-06T13:20:25;11.00;99.90
62904;DHT22;49000;50.698;13.322;2024-03-06T13:22:50;10.90;99.90
62904;DHT22;49000;50.698;13.322;2024-03-06T13:25:16;10.50;99.90
62904;DHT22;49000;50.698;13.322;2024-03-06T13:27:41;10.30;99.90
62904;DHT22;49000;50.698;13.322;2024-03-06T13:30:07;10.40;99.90
62904;DHT22;49000;50.698;13.322;2024-03-06T13:32:33;10.50;99.90
62904;DHT22;49000;50.698;13.322;2024-03-06T13:34:59;10.80;99.90
62904;DHT22;49000;50.698;13.322;2024-03-06T13:37:24;10.50;99.90
62904;DHT22;49000;50.698;13.322;2024-03-06T13:39:50;10.60;99.90
62904;DHT22;49000;50.698;13.322;2024-03-06T13:42:15;10.10;99.90
62904;DHT22;49000;50.698;13.322;2024-03-06T13:44:41;10.30;99.90
62904;DHT22;49000;50.698;13.322;2024-03-06T13:47:06;10.40;99.90
62904;DHT22;49000;50.698;13.322;2024-03-06T13:49:41;10.50;99.90
62904;DHT22;49000;50.698;13.322;2024-03-06T13:52:07;10.20;99.90
62904;DHT22;49000;50.698;13.322;2024-03-06T13:54:37;10.10;99.90
62904;DHT22;49000;50.698;13.322;2024-03-06T13:57:03;10.20;99.90
62904;DHT22;49000;50.698;13.322;2024-03-06T13:59:31;10.20;99.90
62904;DHT22;49000;50.698;13.322;2024-03-06T14:01:57;10.10;99.90
62904;DHT22;49000;50.698;13.322;2024-03-06T14:04:24;10.00;99.90
62904;DHT22;49000;50.698;13.322;2024-03-06T14:06:50;10.20;99.90
62904;DHT22;49000;50.698;13.322;2024-03-06T14:09:16;10.40;99.90
62904;DHT22;49000;50.698;13.322;2024-03-06T14:11:41;10.30;99.90
62904;DHT22;49000;50.698;13.322;2024-03-06T14:14:07;10.40;99.90
62904;DHT22;49000;50.698;13.322;2024-03-06T14:16:34;10.40;99.90
62904;DHT22;49000;50.698;13.322;2024-03-06T14:18:59;10.20;99.90
62904;DHT22;49000;50.698;13.322;2024-03-06T14:21:25;10.00;99.90
62904;DHT22;49000;50.698;13.322;2024-03-06T14:23:50;9.90;99.90
62904;DHT22;49000;50.698;13.322;2024-03-06T14:26:16;9.60;99.90
62904;DHT22;49000;50.698;13.322;2024-03-06T14:28:41;9.40;99.90
62904;DHT22;49000;50.698;13.322;2024-03-06T14:31:07;9.50;99.90
62904;DHT22;49000;50.698;13.322;2024-03-06T14:33:33;9.60;99.90
62904;DHT22;49000;50.698;13.322;2024-03-06T14:35:59;9.60;99.90
62904;DHT22;49000;50.698;13.322;2024-03-06T14:38:25;9.70;99.90
62904;DHT22;49000;50.698;13.322;2024-03-06T14:40:50;10.10;99.90
62904;DHT22;49000;50.698;13.322;2024-03-06T14:43:16;10.50;99.90
62904;DHT22;49000;50.698;13.322;2024-03-06T14:45:44;10.80;99.90
62904;DHT22;49000;50.698;13.322;2024-03-06T14:48:10;11.10;99.90
62904;DHT22;49000;50.698;13.322;2024-03-06T14:50:35;11.60;99.90
62904;DHT22;49000;50.698;13.322;2024-03-06T14:53:01;11.80;99.90
62904;DHT22;49000;50.698;13.322;2024-03-06T14:55:27;11.80;99.90
62904;DHT22;49000;50.698;13.322;2024-03-06T14:57:53;11.60;99.90
62904;DHT22;49000;50.698;13.322;2024-03-06T15:00:19;11.60;99.90
62904;DHT22;49000;50.698;13.322;2024-03-06T15:02:47;11.90;99.90
62904;DHT22;49000;50.698;13.322;2024-03-06T15:05:12;11.50;99.90
62904;DHT22;49000;50.698;13.322;2024-03-06T15:07:38;10.00;99.90
62904;DHT22;49000;50.698;13.322;2024-03-06T15:10:05;9.70;99.90
62904;DHT22;49000;50.698;13.322;2024-03-06T15:12:31;9.90;99.90
62904;DHT22;49000;50.698;13.322;2024-03-06T15:14:56;10.20;99.90
62904;DHT22;49000;50.698;13.322;2024-03-06T15:17:24;10.20;99.90
62904;DHT22;49000;50.698;13.322;2024-03-06T15:19:51;10.00;99.90
62904;DHT22;49000;50.698;13.322;2024-03-06T15:22:17;10.10;99.90
62904;DHT22;49000;50.698;13.322;2024-03-06T15:24:43;10.10;99.90
62904;DHT22;49000;50.698;13.322;2024-03-06T15:27:11;9.70;99.90
62904;DHT22;49000;50.698;13.322;2024-03-06T15:29:37;9.40;99.90
62904;DHT22;49000;50.698;13.322;2024-03-06T15:32:04;9.40;99.90
62904;DHT22;49000;50.698;13.322;2024-03-06T15:34:29;8.80;99.90
62904;DHT22;49000;50.698;13.322;2024-03-06T15:36:55;8.30;99.90
62904;DHT22;49000;50.698;13.322;2024-03-06T15:39:20;8.10;99.90